sensor_id;sensor_type;location;lat;lon;timestamp;P1;durP1;ratioP1;P2;durP2;ratioP2
24751;SDS011;27246;52.376;4.628;2023-03-01T00:03:15;10.30;;;9.07;;
24751;SDS011;27246;52.376;4.628;2023-03-01T00:08:17;10.85;;;9.02;;
24751;SDS011;27246;52.376;4.628;2023-03-01T00:13:19;13.00;;;10.25;;
24751;SDS011;27246;52.376;4.628;2023-03-01T00:18:20;11.88;;;9.48;;
24751;SDS011;27246;52.376;4.628;2023-03-01T00:23:23;11.02;;;9.93;;
24751;SDS011;27246;52.376;4.628;2023-03-01T00:28:25;14.13;;;10.52;;
24751;SDS011;27246;52.376;4.628;2023-03-01T00:33:27;13.07;;;11.27;;
24751;SDS011;27246;52.376;4.628;2023-03-01T00:38:29;11.13;;;10.02;;
24751;SDS011;27246;52.376;4.628;2023-03-01T00:43:31;12.38;;;11.07;;
24751;SDS011;27246;52.376;4.628;2023-03-01T00:48:37;13.27;;;10.65;;
24751;SDS011;27246;52.376;4.628;2023-03-01T00:53:39;10.77;;;9.75;;
24751;SDS011;27246;52.376;4.628;2023-03-01T00:58:42;13.88;;;11.45;;
24751;SDS011;27246;52.376;4.628;2023-03-01T01:03:55;15.05;;;10.80;;
24751;SDS011;27246;52.376;4.628;2023-03-01T01:08:58;11.60;;;10.30;;
24751;SDS011;27246;52.376;4.628;2023-03-01T01:14:00;12.30;;;10.43;;
24751;SDS011;27246;52.376;4.628;2023-03-01T01:19:03;12.20;;;10.98;;
24751;SDS011;27246;52.376;4.628;2023-03-01T01:24:05;13.43;;;11.60;;
24751;SDS011;27246;52.376;4.628;2023-03-01T01:29:07;13.88;;;11.82;;
24751;SDS011;27246;52.376;4.628;2023-03-01T01:34:12;14.05;;;11.15;;
24751;SDS011;27246;52.376;4.628;2023-03-01T01:39:16;12.50;;;11.20;;
24751;SDS011;27246;52.376;4.628;2023-03-01T01:54:43;13.50;;;11.75;;
24751;SDS011;27246;52.376;4.628;2023-03-01T01:59:52;13.57;;;11.63;;
24751;SDS011;27246;52.376;4.628;2023-03-01T02:05:01;14.00;;;11.85;;
24751;SDS011;27246;52.376;4.628;2023-03-01T02:10:11;14.82;;;12.35;;
24751;SDS011;27246;52.376;4.628;2023-03-01T02:15:13;14.05;;;12.52;;
24751;SDS011;27246;52.376;4.628;2023-03-01T02:20:23;14.00;;;12.60;;
24751;SDS011;27246;52.376;4.628;2023-03-01T02:25:36;14.88;;;13.15;;
24751;SDS011;27246;52.376;4.628;2023-03-01T02:31:04;15.60;;;12.85;;
24751;SDS011;27246;52.376;4.628;2023-03-01T02:36:31;15.65;;;13.88;;
24751;SDS011;27246;52.376;4.628;2023-03-01T02:41:38;17.77;;;14.15;;
24751;SDS011;27246;52.376;4.628;2023-03-01T02:46:43;17.58;;;14.18;;
24751;SDS011;27246;52.376;4.628;2023-03-01T02:51:52;15.07;;;13.27;;
24751;SDS011;27246;52.376;4.628;2023-03-01T02:57:13;15.95;;;14.25;;
24751;SDS011;27246;52.376;4.628;2023-03-01T03:02:22;14.90;;;13.32;;
24751;SDS011;27246;52.376;4.628;2023-03-01T03:07:42;15.40;;;13.82;;
24751;SDS011;27246;52.376;4.628;2023-03-01T03:12:52;16.23;;;14.55;;
24751;SDS011;27246;52.376;4.628;2023-03-01T03:17:56;15.68;;;13.88;;
24751;SDS011;27246;52.376;4.628;2023-03-01T03:22:59;18.27;;;15.40;;
24751;SDS011;27246;52.376;4.628;2023-03-01T03:28:01;17.77;;;14.45;;
24751;SDS011;27246;52.376;4.628;2023-03-01T03:33:10;16.75;;;13.88;;
24751;SDS011;27246;52.376;4.628;2023-03-01T03:38:14;15.95;;;14.25;;
24751;SDS011;27246;52.376;4.628;2023-03-01T03:43:19;16.58;;;13.32;;
24751;SDS011;27246;52.376;4.628;2023-03-01T03:48:23;17.30;;;15.45;;
24751;SDS011;27246;52.376;4.628;2023-03-01T03:53:26;16.60;;;14.70;;
24751;SDS011;27246;52.376;4.628;2023-03-01T03:58:29;18.30;;;15.20;;
24751;SDS011;27246;52.376;4.628;2023-03-01T04:03:31;17.63;;;15.75;;
24751;SDS011;27246;52.376;4.628;2023-03-01T04:08:33;19.67;;;15.40;;
24751;SDS011;27246;52.376;4.628;2023-03-01T04:13:35;18.70;;;15.68;;
24751;SDS011;27246;52.376;4.628;2023-03-01T04:18:37;18.10;;;16.08;;
24751;SDS011;27246;52.376;4.628;2023-03-01T04:23:39;17.48;;;15.13;;
24751;SDS011;27246;52.376;4.628;2023-03-01T04:28:42;16.75;;;14.98;;
24751;SDS011;27246;52.376;4.628;2023-03-01T04:33:51;16.50;;;14.80;;
24751;SDS011;27246;52.376;4.628;2023-03-01T04:38:54;16.98;;;15.00;;
24751;SDS011;27246;52.376;4.628;2023-03-01T04:43:57;20.95;;;16.50;;
24751;SDS011;27246;52.376;4.628;2023-03-01T04:49:01;18.48;;;16.58;;
24751;SDS011;27246;52.376;4.628;2023-03-01T04:54:04;19.42;;;16.42;;
24751;SDS011;27246;52.376;4.628;2023-03-01T04:59:10;20.55;;;16.65;;
24751;SDS011;27246;52.376;4.628;2023-03-01T05:04:13;19.92;;;17.25;;
24751;SDS011;27246;52.376;4.628;2023-03-01T05:09:15;20.17;;;17.17;;
24751;SDS011;27246;52.376;4.628;2023-03-01T05:14:17;21.23;;;18.20;;
24751;SDS011;27246;52.376;4.628;2023-03-01T05:19:18;19.67;;;16.98;;
24751;SDS011;27246;52.376;4.628;2023-03-01T05:24:24;24.17;;;18.83;;
24751;SDS011;27246;52.376;4.628;2023-03-01T05:29:26;25.52;;;19.55;;
24751;SDS011;27246;52.376;4.628;2023-03-01T05:34:33;20.50;;;17.02;;
24751;SDS011;27246;52.376;4.628;2023-03-01T05:39:36;19.65;;;16.75;;
24751;SDS011;27246;52.376;4.628;2023-03-01T05:44:38;19.38;;;15.77;;
24751;SDS011;27246;52.376;4.628;2023-03-01T05:49:40;24.42;;;17.45;;
24751;SDS011;27246;52.376;4.628;2023-03-01T05:54:41;25.30;;;19.80;;
24751;SDS011;27246;52.376;4.628;2023-03-01T05:59:43;27.95;;;19.73;;
24751;SDS011;27246;52.376;4.628;2023-03-01T06:04:44;25.67;;;19.40;;
24751;SDS011;27246;52.376;4.628;2023-03-01T06:09:46;21.77;;;17.92;;
24751;SDS011;27246;52.376;4.628;2023-03-01T06:14:48;25.42;;;19.25;;
24751;SDS011;27246;52.376;4.628;2023-03-01T06:19:49;26.88;;;18.30;;
24751;SDS011;27246;52.376;4.628;2023-03-01T06:24:51;28.92;;;18.92;;
24751;SDS011;27246;52.376;4.628;2023-03-01T06:29:53;24.67;;;18.77;;
24751;SDS011;27246;52.376;4.628;2023-03-01T06:34:55;24.88;;;18.10;;
24751;SDS011;27246;52.376;4.628;2023-03-01T06:39:56;29.25;;;19.17;;
24751;SDS011;27246;52.376;4.628;2023-03-01T06:44:58;25.02;;;18.42;;
24751;SDS011;27246;52.376;4.628;2023-03-01T06:50:00;27.02;;;19.17;;
24751;SDS011;27246;52.376;4.628;2023-03-01T06:55:03;29.20;;;20.20;;
24751;SDS011;27246;52.376;4.628;2023-03-01T07:00:05;23.15;;;18.35;;
24751;SDS011;27246;52.376;4.628;2023-03-01T07:05:08;26.50;;;19.95;;
24751;SDS011;27246;52.376;4.628;2023-03-01T07:10:10;26.60;;;20.48;;
24751;SDS011;27246;52.376;4.628;2023-03-01T07:15:12;24.50;;;20.75;;
24751;SDS011;27246;52.376;4.628;2023-03-01T07:20:16;25.30;;;19.95;;
24751;SDS011;27246;52.376;4.628;2023-03-01T07:25:19;26.83;;;20.58;;
24751;SDS011;27246;52.376;4.628;2023-03-01T07:30:21;28.67;;;21.02;;
24751;SDS011;27246;52.376;4.628;2023-03-01T07:35:27;32.60;;;23.67;;
24751;SDS011;27246;52.376;4.628;2023-03-01T07:40:29;35.42;;;23.83;;
24751;SDS011;27246;52.376;4.628;2023-03-01T07:45:30;39.55;;;24.00;;
24751;SDS011;27246;52.376;4.628;2023-03-01T07:50:32;48.90;;;25.05;;
24751;SDS011;27246;52.376;4.628;2023-03-01T07:55:34;57.38;;;20.42;;
24751;SDS011;27246;52.376;4.628;2023-03-01T08:00:36;52.45;;;19.52;;
24751;SDS011;27246;52.376;4.628;2023-03-01T08:05:37;87.88;;;17.77;;
24751;SDS011;27246;52.376;4.628;2023-03-01T08:10:39;40.25;;;19.30;;
24751;SDS011;27246;52.376;4.628;2023-03-01T08:15:41;29.30;;;19.75;;
24751;SDS011;27246;52.376;4.628;2023-03-01T08:20:42;27.80;;;20.30;;
24751;SDS011;27246;52.376;4.628;2023-03-01T08:25:44;27.30;;;20.48;;
24751;SDS011;27246;52.376;4.628;2023-03-01T08:30:46;27.05;;;19.70;;
24751;SDS011;27246;52.376;4.628;2023-03-01T08:35:48;26.63;;;20.13;;
24751;SDS011;27246;52.376;4.628;2023-03-01T08:40:49;28.27;;;21.13;;
24751;SDS011;27246;52.376;4.628;2023-03-01T08:45:51;35.65;;;19.85;;
24751;SDS011;27246;52.376;4.628;2023-03-01T08:50:53;59.20;;;20.63;;
24751;SDS011;27246;52.376;4.628;2023-03-01T08:55:54;37.75;;;21.20;;
24751;SDS011;27246;52.376;4.628;2023-03-01T09:00:56;28.08;;;20.67;;
24751;SDS011;27246;52.376;4.628;2023-03-01T09:06:01;27.38;;;22.42;;
24751;SDS011;27246;52.376;4.628;2023-03-01T09:11:05;34.08;;;21.02;;
24751;SDS011;27246;52.376;4.628;2023-03-01T09:16:09;32.40;;;21.13;;
24751;SDS011;27246;52.376;4.628;2023-03-01T09:21:14;32.53;;;22.48;;
24751;SDS011;27246;52.376;4.628;2023-03-01T09:26:21;38.67;;;22.42;;
24751;SDS011;27246;52.376;4.628;2023-03-01T09:31:24;33.88;;;22.98;;
24751;SDS011;27246;52.376;4.628;2023-03-01T09:36:26;37.83;;;24.23;;
24751;SDS011;27246;52.376;4.628;2023-03-01T09:46:47;31.47;;;24.07;;
24751;SDS011;27246;52.376;4.628;2023-03-01T10:08:05;29.90;;;22.55;;
24751;SDS011;27246;52.376;4.628;2023-03-01T10:13:38;28.17;;;24.47;;
24751;SDS011;27246;52.376;4.628;2023-03-01T10:18:58;35.47;;;26.10;;
24751;SDS011;27246;52.376;4.628;2023-03-01T10:24:13;33.08;;;25.80;;
24751;SDS011;27246;52.376;4.628;2023-03-01T10:29:17;36.55;;;26.60;;
24751;SDS011;27246;52.376;4.628;2023-03-01T10:34:30;36.05;;;27.63;;
24751;SDS011;27246;52.376;4.628;2023-03-01T10:39:33;28.55;;;22.55;;
24751;SDS011;27246;52.376;4.628;2023-03-01T10:44:37;32.00;;;23.30;;
24751;SDS011;27246;52.376;4.628;2023-03-01T10:49:51;23.73;;;19.88;;
24751;SDS011;27246;52.376;4.628;2023-03-01T10:55:00;25.55;;;18.40;;
24751;SDS011;27246;52.376;4.628;2023-03-01T11:00:25;26.35;;;18.42;;
24751;SDS011;27246;52.376;4.628;2023-03-01T11:05:33;21.90;;;16.60;;
24751;SDS011;27246;52.376;4.628;2023-03-01T11:10:35;17.88;;;14.27;;
24751;SDS011;27246;52.376;4.628;2023-03-01T11:15:37;14.57;;;12.93;;
24751;SDS011;27246;52.376;4.628;2023-03-01T11:20:39;17.13;;;13.73;;
24751;SDS011;27246;52.376;4.628;2023-03-01T11:25:43;15.85;;;11.02;;
24751;SDS011;27246;52.376;4.628;2023-03-01T11:30:55;10.93;;;8.82;;
24751;SDS011;27246;52.376;4.628;2023-03-01T11:41:17;11.90;;;10.55;;
24751;SDS011;27246;52.376;4.628;2023-03-01T11:51:54;11.95;;;10.75;;
24751;SDS011;27246;52.376;4.628;2023-03-01T12:02:55;11.93;;;10.55;;
24751;SDS011;27246;52.376;4.628;2023-03-01T12:24:35;16.05;;;10.88;;
24751;SDS011;27246;52.376;4.628;2023-03-01T12:29:48;12.90;;;10.65;;
24751;SDS011;27246;52.376;4.628;2023-03-01T12:51:12;13.43;;;11.43;;
24751;SDS011;27246;52.376;4.628;2023-03-01T12:56:18;15.10;;;10.60;;
24751;SDS011;27246;52.376;4.628;2023-03-01T13:06:40;14.60;;;11.88;;
24751;SDS011;27246;52.376;4.628;2023-03-01T13:17:46;16.02;;;11.70;;
24751;SDS011;27246;52.376;4.628;2023-03-01T13:22:48;12.68;;;11.07;;
24751;SDS011;27246;52.376;4.628;2023-03-01T13:38:39;14.02;;;10.10;;
24751;SDS011;27246;52.376;4.628;2023-03-01T13:43:47;12.95;;;9.45;;
24751;SDS011;27246;52.376;4.628;2023-03-01T13:48:53;13.80;;;10.20;;
24751;SDS011;27246;52.376;4.628;2023-03-01T13:53:58;14.23;;;10.93;;
24751;SDS011;27246;52.376;4.628;2023-03-01T13:59:12;12.88;;;11.25;;
24751;SDS011;27246;52.376;4.628;2023-03-01T14:04:24;13.90;;;11.60;;
24751;SDS011;27246;52.376;4.628;2023-03-01T14:09:32;13.88;;;12.38;;
24751;SDS011;27246;52.376;4.628;2023-03-01T14:19:46;13.93;;;10.68;;
24751;SDS011;27246;52.376;4.628;2023-03-01T14:24:56;12.13;;;9.15;;
24751;SDS011;27246;52.376;4.628;2023-03-01T14:30:02;20.90;;;11.98;;
24751;SDS011;27246;52.376;4.628;2023-03-01T14:40:34;14.95;;;12.20;;
24751;SDS011;27246;52.376;4.628;2023-03-01T14:45:37;16.20;;;12.18;;
24751;SDS011;27246;52.376;4.628;2023-03-01T14:50:42;15.52;;;12.85;;
24751;SDS011;27246;52.376;4.628;2023-03-01T14:55:46;13.32;;;11.30;;
24751;SDS011;27246;52.376;4.628;2023-03-01T15:00:53;14.60;;;11.75;;
24751;SDS011;27246;52.376;4.628;2023-03-01T15:05:57;17.15;;;11.32;;
24751;SDS011;27246;52.376;4.628;2023-03-01T15:11:15;4.50;;;3.65;;
24751;SDS011;27246;52.376;4.628;2023-03-01T15:16:24;12.63;;;10.55;;
24751;SDS011;27246;52.376;4.628;2023-03-01T15:26:38;3.85;;;2.85;;
24751;SDS011;27246;52.376;4.628;2023-03-01T15:31:42;11.95;;;8.50;;
24751;SDS011;27246;52.376;4.628;2023-03-01T15:36:45;10.73;;;8.55;;
24751;SDS011;27246;52.376;4.628;2023-03-01T15:41:51;11.63;;;9.00;;
24751;SDS011;27246;52.376;4.628;2023-03-01T15:46:52;17.98;;;9.77;;
24751;SDS011;27246;52.376;4.628;2023-03-01T15:51:54;11.73;;;8.80;;
24751;SDS011;27246;52.376;4.628;2023-03-01T15:56:56;10.80;;;8.40;;
24751;SDS011;27246;52.376;4.628;2023-03-01T16:01:58;8.95;;;7.15;;
24751;SDS011;27246;52.376;4.628;2023-03-01T16:06:59;9.93;;;8.20;;
24751;SDS011;27246;52.376;4.628;2023-03-01T16:12:02;10.50;;;8.15;;
24751;SDS011;27246;52.376;4.628;2023-03-01T16:17:04;9.00;;;8.02;;
24751;SDS011;27246;52.376;4.628;2023-03-01T16:22:06;10.77;;;8.40;;
24751;SDS011;27246;52.376;4.628;2023-03-01T16:27:11;10.35;;;8.52;;
24751;SDS011;27246;52.376;4.628;2023-03-01T16:32:12;13.48;;;8.32;;
24751;SDS011;27246;52.376;4.628;2023-03-01T16:37:14;12.38;;;8.50;;
24751;SDS011;27246;52.376;4.628;2023-03-01T16:42:17;10.43;;;8.93;;
24751;SDS011;27246;52.376;4.628;2023-03-01T16:47:19;10.95;;;8.63;;
24751;SDS011;27246;52.376;4.628;2023-03-01T16:52:21;11.10;;;9.32;;
24751;SDS011;27246;52.376;4.628;2023-03-01T16:57:23;12.98;;;10.10;;
24751;SDS011;27246;52.376;4.628;2023-03-01T17:02:25;11.57;;;9.98;;
24751;SDS011;27246;52.376;4.628;2023-03-01T17:07:27;20.15;;;13.43;;
24751;SDS011;27246;52.376;4.628;2023-03-01T17:12:29;15.13;;;13.52;;
24751;SDS011;27246;52.376;4.628;2023-03-01T17:17:31;20.92;;;13.23;;
24751;SDS011;27246;52.376;4.628;2023-03-01T17:22:33;22.23;;;16.60;;
24751;SDS011;27246;52.376;4.628;2023-03-01T17:27:38;20.90;;;15.82;;
24751;SDS011;27246;52.376;4.628;2023-03-01T17:32:40;19.23;;;14.18;;
24751;SDS011;27246;52.376;4.628;2023-03-01T17:37:42;19.52;;;15.25;;
24751;SDS011;27246;52.376;4.628;2023-03-01T17:42:46;19.63;;;15.18;;
24751;SDS011;27246;52.376;4.628;2023-03-01T17:47:48;18.45;;;15.60;;
24751;SDS011;27246;52.376;4.628;2023-03-01T17:52:50;21.45;;;15.38;;
24751;SDS011;27246;52.376;4.628;2023-03-01T17:57:51;30.88;;;21.27;;
24751;SDS011;27246;52.376;4.628;2023-03-01T18:02:53;24.65;;;19.02;;
24751;SDS011;27246;52.376;4.628;2023-03-01T18:07:55;19.60;;;14.77;;
24751;SDS011;27246;52.376;4.628;2023-03-01T18:12:56;20.52;;;16.05;;
24751;SDS011;27246;52.376;4.628;2023-03-01T18:17:58;22.02;;;17.63;;
24751;SDS011;27246;52.376;4.628;2023-03-01T18:23:00;18.55;;;14.77;;
24751;SDS011;27246;52.376;4.628;2023-03-01T18:28:01;17.00;;;12.57;;
24751;SDS011;27246;52.376;4.628;2023-03-01T18:33:03;16.85;;;14.15;;
24751;SDS011;27246;52.376;4.628;2023-03-01T18:38:05;21.15;;;14.88;;
24751;SDS011;27246;52.376;4.628;2023-03-01T18:43:07;12.77;;;11.45;;
24751;SDS011;27246;52.376;4.628;2023-03-01T18:48:09;22.10;;;16.73;;
24751;SDS011;27246;52.376;4.628;2023-03-01T18:53:14;17.17;;;11.48;;
24751;SDS011;27246;52.376;4.628;2023-03-01T18:58:16;18.85;;;13.35;;
24751;SDS011;27246;52.376;4.628;2023-03-01T19:03:17;17.88;;;14.38;;
24751;SDS011;27246;52.376;4.628;2023-03-01T19:08:19;19.55;;;14.27;;
24751;SDS011;27246;52.376;4.628;2023-03-01T19:13:21;17.45;;;14.32;;
24751;SDS011;27246;52.376;4.628;2023-03-01T19:18:22;18.83;;;14.70;;
24751;SDS011;27246;52.376;4.628;2023-03-01T19:23:24;20.30;;;14.05;;
24751;SDS011;27246;52.376;4.628;2023-03-01T19:28:26;17.70;;;13.45;;
24751;SDS011;27246;52.376;4.628;2023-03-01T19:33:28;19.63;;;14.18;;
24751;SDS011;27246;52.376;4.628;2023-03-01T19:38:31;15.93;;;13.52;;
24751;SDS011;27246;52.376;4.628;2023-03-01T19:43:33;20.55;;;14.13;;
24751;SDS011;27246;52.376;4.628;2023-03-01T19:48:35;17.45;;;14.35;;
24751;SDS011;27246;52.376;4.628;2023-03-01T19:53:38;18.38;;;14.38;;
24751;SDS011;27246;52.376;4.628;2023-03-01T19:58:40;20.48;;;15.55;;
24751;SDS011;27246;52.376;4.628;2023-03-01T20:03:43;18.20;;;14.07;;
24751;SDS011;27246;52.376;4.628;2023-03-01T20:08:49;19.75;;;14.75;;
24751;SDS011;27246;52.376;4.628;2023-03-01T20:13:50;16.20;;;13.50;;
24751;SDS011;27246;52.376;4.628;2023-03-01T20:18:52;19.98;;;14.27;;
24751;SDS011;27246;52.376;4.628;2023-03-01T20:23:54;19.33;;;14.68;;
24751;SDS011;27246;52.376;4.628;2023-03-01T20:28:56;19.85;;;13.52;;
24751;SDS011;27246;52.376;4.628;2023-03-01T20:33:58;18.75;;;14.15;;
24751;SDS011;27246;52.376;4.628;2023-03-01T20:39:00;18.63;;;14.25;;
24751;SDS011;27246;52.376;4.628;2023-03-01T20:44:02;17.42;;;13.52;;
24751;SDS011;27246;52.376;4.628;2023-03-01T20:49:06;17.83;;;13.80;;
24751;SDS011;27246;52.376;4.628;2023-03-01T20:54:08;18.65;;;15.90;;
24751;SDS011;27246;52.376;4.628;2023-03-01T20:59:11;20.27;;;14.93;;
24751;SDS011;27246;52.376;4.628;2023-03-01T21:04:13;19.00;;;15.90;;
24751;SDS011;27246;52.376;4.628;2023-03-01T21:09:14;20.48;;;15.23;;
24751;SDS011;27246;52.376;4.628;2023-03-01T21:14:16;18.45;;;15.30;;
24751;SDS011;27246;52.376;4.628;2023-03-01T21:19:18;19.60;;;16.30;;
24751;SDS011;27246;52.376;4.628;2023-03-01T21:24:23;20.75;;;16.15;;
24751;SDS011;27246;52.376;4.628;2023-03-01T21:29:25;21.30;;;16.75;;
24751;SDS011;27246;52.376;4.628;2023-03-01T21:34:27;21.00;;;16.38;;
24751;SDS011;27246;52.376;4.628;2023-03-01T21:39:28;23.45;;;17.55;;
24751;SDS011;27246;52.376;4.628;2023-03-01T21:44:30;24.95;;;18.48;;
24751;SDS011;27246;52.376;4.628;2023-03-01T21:49:34;24.73;;;18.48;;
24751;SDS011;27246;52.376;4.628;2023-03-01T21:54:37;24.15;;;20.83;;
24751;SDS011;27246;52.376;4.628;2023-03-01T21:59:39;28.23;;;21.33;;
24751;SDS011;27246;52.376;4.628;2023-03-01T22:04:41;27.10;;;20.65;;
24751;SDS011;27246;52.376;4.628;2023-03-01T22:09:43;25.92;;;21.35;;
24751;SDS011;27246;52.376;4.628;2023-03-01T22:14:45;24.67;;;19.42;;
24751;SDS011;27246;52.376;4.628;2023-03-01T22:19:46;24.58;;;19.83;;
24751;SDS011;27246;52.376;4.628;2023-03-01T22:24:48;25.98;;;20.05;;
24751;SDS011;27246;52.376;4.628;2023-03-01T22:29:50;23.65;;;19.70;;
24751;SDS011;27246;52.376;4.628;2023-03-01T22:34:52;23.73;;;19.50;;
24751;SDS011;27246;52.376;4.628;2023-03-01T22:39:54;23.98;;;20.33;;
24751;SDS011;27246;52.376;4.628;2023-03-01T22:44:57;23.50;;;19.52;;
24751;SDS011;27246;52.376;4.628;2023-03-01T22:49:59;23.23;;;19.63;;
24751;SDS011;27246;52.376;4.628;2023-03-01T22:55:01;24.52;;;21.20;;
24751;SDS011;27246;52.376;4.628;2023-03-01T23:00:05;24.92;;;21.17;;
24751;SDS011;27246;52.376;4.628;2023-03-01T23:05:08;27.90;;;21.25;;
24751;SDS011;27246;52.376;4.628;2023-03-01T23:10:11;28.10;;;23.02;;
24751;SDS011;27246;52.376;4.628;2023-03-01T23:15:13;26.88;;;22.02;;
24751;SDS011;27246;52.376;4.628;2023-03-01T23:20:15;27.92;;;22.73;;
24751;SDS011;27246;52.376;4.628;2023-03-01T23:25:18;24.88;;;22.15;;
24751;SDS011;27246;52.376;4.628;2023-03-01T23:30:19;26.60;;;22.20;;
24751;SDS011;27246;52.376;4.628;2023-03-01T23:35:21;27.00;;;22.83;;
24751;SDS011;27246;52.376;4.628;2023-03-01T23:40:23;24.70;;;22.10;;
24751;SDS011;27246;52.376;4.628;2023-03-01T23:45:25;24.17;;;19.33;;
24751;SDS011;27246;52.376;4.628;2023-03-01T23:50:27;24.02;;;20.27;;
24751;SDS011;27246;52.376;4.628;2023-03-01T23:55:28;24.30;;;21.05;;
